createdAt,value
2023-01-21T00:00:10.431Z,73.81
2023-01-21T00:05:11.904Z,73.30
2023-01-21T00:10:13.374Z,73.40
2023-01-21T00:15:14.832Z,74.26
2023-01-21T00:20:16.884Z,74.44
2023-01-21T00:25:18.623Z,74.50
2023-01-21T00:30:20.299Z,76.65
2023-01-21T00:35:21.737Z,76.55
2023-01-21T00:40:23.219Z,79.15
2023-01-21T00:45:24.698Z,79.55
2023-01-21T00:50:26.098Z,79.52
2023-01-21T00:55:27.491Z,80.37
2023-01-21T01:00:28.986Z,80.39
2023-01-21T01:05:30.471Z,79.95
2023-01-21T01:10:31.876Z,79.78
2023-01-21T01:15:33.307Z,79.37
2023-01-21T01:20:34.726Z,79.05
2023-01-21T01:25:37.963Z,79.08
2023-01-21T01:30:39.462Z,77.90
2023-01-21T01:35:42.015Z,78.43
2023-01-21T01:40:43.663Z,78.17
2023-01-21T01:45:45.269Z,77.88
2023-01-21T01:50:48.076Z,77.50
2023-01-21T01:55:49.919Z,77.21
2023-01-21T02:00:51.474Z,77.38
2023-01-21T02:05:54.052Z,77.28
2023-01-21T02:10:56.525Z,76.46
2023-01-21T02:16:21.614Z,76.92
2023-01-21T02:21:49.959Z,77.07
2023-01-21T02:27:09.880Z,77.41
2023-01-21T02:32:32.957Z,77.66
2023-01-21T02:38:06.894Z,77.75
2023-01-21T02:43:43.386Z,77.47
2023-01-21T02:48:56.583Z,77.92
2023-01-21T02:53:58.020Z,78.11
2023-01-21T02:59:04.628Z,78.15
2023-01-21T03:04:32.711Z,78.49
2023-01-21T03:09:35.363Z,78.43
2023-01-21T03:15:02.277Z,78.72
2023-01-21T03:20:25.661Z,79.40
2023-01-21T03:25:31.515Z,79.25
2023-01-21T03:30:35.572Z,81.34
2023-01-21T03:35:42.992Z,80.83
2023-01-21T03:40:56.515Z,81.31
2023-01-21T03:46:01.268Z,81.40
2023-01-21T03:51:10.047Z,80.92
2023-01-21T03:56:11.557Z,81.03
2023-01-21T04:01:13.098Z,80.92
2023-01-21T04:06:17.187Z,80.71
2023-01-21T04:11:18.888Z,80.82
2023-01-21T04:16:20.412Z,81.14
2023-01-21T04:21:21.968Z,80.90
2023-01-21T04:26:23.533Z,81.14
2023-01-21T04:31:25.143Z,80.79
2023-01-21T04:36:26.652Z,80.45
2023-01-21T04:41:28.212Z,80.34
2023-01-21T04:46:29.711Z,80.13
2023-01-21T04:51:31.248Z,79.86
2023-01-21T04:56:32.664Z,79.18
2023-01-21T05:01:34.361Z,79.06
2023-01-21T05:06:35.809Z,79.25
2023-01-21T05:11:37.497Z,78.84
2023-01-21T05:16:39.040Z,79.44
2023-01-21T05:21:41.722Z,79.01
2023-01-21T05:26:44.894Z,79.48
2023-01-21T05:31:46.532Z,79.69
2023-01-21T05:36:48.062Z,79.70
2023-01-21T05:41:50.153Z,79.39
2023-01-21T05:46:53.002Z,79.34
2023-01-21T05:51:54.957Z,79.33
2023-01-21T05:56:56.628Z,79.31
2023-01-21T06:02:01.048Z,78.63
2023-01-21T06:07:02.515Z,80.09
2023-01-21T06:12:04.144Z,80.06
2023-01-21T06:17:05.940Z,80.53
2023-01-21T06:22:07.423Z,80.64
2023-01-21T06:27:08.840Z,81.64
2023-01-21T06:32:10.487Z,82.91
2023-01-21T06:37:12.041Z,83.37
2023-01-21T06:42:13.601Z,83.81
2023-01-21T06:47:15.687Z,84.15
2023-01-21T06:52:17.603Z,84.46
2023-01-21T06:57:22.360Z,85.36
2023-01-21T07:02:23.812Z,86.58
2023-01-21T07:07:25.411Z,85.74
2023-01-21T07:12:27.036Z,86.47
2023-01-21T07:17:28.544Z,86.44
2023-01-21T07:22:30.003Z,87.68
2023-01-21T07:27:31.833Z,87.61
2023-01-21T07:32:33.397Z,88.59
2023-01-21T07:37:34.889Z,88.10
2023-01-21T07:42:36.435Z,88.04
2023-01-21T07:47:37.922Z,87.79
2023-01-21T07:52:40.044Z,87.83
2023-01-21T07:57:41.496Z,87.61
2023-01-21T08:02:43.016Z,87.75
2023-01-21T08:07:44.610Z,88.21
2023-01-21T08:12:46.155Z,86.67
2023-01-21T08:17:48.992Z,86.37
2023-01-21T08:22:50.963Z,85.96
2023-01-21T08:27:54.207Z,84.91
2023-01-21T08:32:55.966Z,85.00
2023-01-21T08:37:57.579Z,84.79
2023-01-21T08:43:00.153Z,84.71
2023-01-21T08:48:04.038Z,84.40
2023-01-21T08:53:05.559Z,84.20
2023-01-21T08:58:06.994Z,84.06
2023-01-21T09:03:08.824Z,84.70
2023-01-21T09:08:10.403Z,85.17
2023-01-21T09:13:12.853Z,84.77
2023-01-21T09:18:14.736Z,84.49
2023-01-21T09:23:25.621Z,84.75
2023-01-21T09:28:32.189Z,84.66
2023-01-21T09:33:37.873Z,84.36
2023-01-21T09:38:42.595Z,84.06
2023-01-21T09:43:49.052Z,84.22
2023-01-21T09:48:51.740Z,84.37
2023-01-21T09:53:57.986Z,83.74
2023-01-21T09:59:22.469Z,83.57
2023-01-21T10:04:46.172Z,83.58
2023-01-21T10:10:14.710Z,83.41
2023-01-21T10:15:41.396Z,82.96
2023-01-21T10:20:58.950Z,81.86
2023-01-21T10:26:07.131Z,82.20
2023-01-21T10:31:28.668Z,81.53
2023-01-21T10:36:49.484Z,81.04
2023-01-21T10:42:17.530Z,80.75
2023-01-21T10:47:44.927Z,80.04
2023-01-21T10:52:55.295Z,80.02
2023-01-21T10:58:26.111Z,80.36
2023-01-21T11:03:46.070Z,79.99
2023-01-21T11:08:59.852Z,79.82
2023-01-21T11:14:02.092Z,80.33
2023-01-21T11:19:06.846Z,80.70
2023-01-21T11:24:23.546Z,81.57
2023-01-21T11:29:26.209Z,80.13
2023-01-21T11:34:28.524Z,80.31
2023-01-21T11:39:35.468Z,79.96
2023-01-21T11:44:54.311Z,79.70
2023-01-21T11:50:03.346Z,79.77
2023-01-21T11:55:17.674Z,79.81
2023-01-21T12:00:22.796Z,79.40
2023-01-21T12:05:37.328Z,79.44
2023-01-21T12:10:44.622Z,80.82
2023-01-21T12:15:52.436Z,80.53
2023-01-21T12:20:57.216Z,80.70
2023-01-21T12:26:05.329Z,80.87
2023-01-21T12:31:23.853Z,81.45
2023-01-21T12:36:33.509Z,82.01
2023-01-21T12:41:40.437Z,81.84
2023-01-21T12:46:47.629Z,82.48
2023-01-21T12:52:14.819Z,82.49
2023-01-21T12:57:27.825Z,82.90
2023-01-21T13:02:53.109Z,83.47
2023-01-21T13:08:03.542Z,83.21
2023-01-21T13:13:14.174Z,83.65
2023-01-21T13:18:33.980Z,83.00
2023-01-21T13:23:48.297Z,83.58
2023-01-21T13:29:16.421Z,84.07
2023-01-21T13:34:39.995Z,83.75
2023-01-21T13:39:55.096Z,84.22
2023-01-21T13:45:15.937Z,84.00
2023-01-21T13:50:59.649Z,84.63
2023-01-21T13:56:13.930Z,84.97
2023-01-21T14:01:23.561Z,84.19
2023-01-21T14:06:40.628Z,84.36
2023-01-21T14:11:50.005Z,85.79
2023-01-21T14:16:52.874Z,85.93
2023-01-21T14:22:16.692Z,86.08
2023-01-21T14:27:27.785Z,85.90
2023-01-21T14:32:38.104Z,86.02
2023-01-21T14:37:40.457Z,86.04
2023-01-21T14:42:49.275Z,86.25
2023-01-21T14:47:55.843Z,86.06
2023-01-21T14:52:58.000Z,86.56
2023-01-21T14:58:01.856Z,87.10
2023-01-21T15:03:03.437Z,87.26
2023-01-21T15:08:23.893Z,87.25
2023-01-21T15:13:32.929Z,87.32
2023-01-21T15:18:38.710Z,86.64
2023-01-21T15:23:41.542Z,86.91
2023-01-21T15:28:44.883Z,87.17
2023-01-21T15:33:58.946Z,87.56
2023-01-21T15:39:29.034Z,87.75
2023-01-21T15:44:47.501Z,87.32
2023-01-21T15:50:00.164Z,87.49
2023-01-21T15:55:32.611Z,87.76
2023-01-21T16:00:43.112Z,88.01
2023-01-21T16:05:50.568Z,88.21
2023-01-21T16:11:01.598Z,88.35
2023-01-21T16:16:12.729Z,88.75
2023-01-21T16:21:16.079Z,89.21
2023-01-21T16:26:26.220Z,89.13
2023-01-21T16:31:27.869Z,89.51
2023-01-21T16:36:38.236Z,89.50
2023-01-21T16:41:39.785Z,89.80
2023-01-21T16:46:41.775Z,89.01
2023-01-21T16:52:18.929Z,89.87
2023-01-21T16:57:31.495Z,89.47
2023-01-21T17:02:34.118Z,89.50
2023-01-21T17:07:43.623Z,89.72
2023-01-21T17:12:59.229Z,90.17
2023-01-21T17:18:01.242Z,89.93
2023-01-21T17:23:08.059Z,90.40
2023-01-21T17:28:29.369Z,89.16
2023-01-21T17:33:30.940Z,88.90
2023-01-21T17:38:38.926Z,89.10
2023-01-21T17:43:47.823Z,88.80
2023-01-21T17:48:53.818Z,89.09
2023-01-21T17:54:02.093Z,88.99
2023-01-21T17:59:21.620Z,89.09
2023-01-21T18:04:23.192Z,89.37
2023-01-21T18:09:25.659Z,89.54
2023-01-21T18:14:27.458Z,89.62
2023-01-21T18:19:31.204Z,89.05
2023-01-21T18:24:33.009Z,89.00
2023-01-21T18:29:34.561Z,89.60
2023-01-21T18:34:36.300Z,89.41
2023-01-21T18:39:37.978Z,89.64
2023-01-21T18:44:39.775Z,89.13
2023-01-21T18:49:41.475Z,89.52
2023-01-21T18:54:43.108Z,89.28
2023-01-21T18:59:44.694Z,89.39
2023-01-21T19:04:47.372Z,89.32
2023-01-21T19:09:51.214Z,89.55
2023-01-21T19:14:53.265Z,89.63
2023-01-21T19:19:55.470Z,89.93
2023-01-21T19:24:56.955Z,89.53
2023-01-21T19:30:01.431Z,89.87
2023-01-21T19:35:02.932Z,89.63
2023-01-21T19:40:13.443Z,90.35
2023-01-21T19:45:20.110Z,90.40
2023-01-21T19:50:24.503Z,90.29
2023-01-21T19:55:26.134Z,90.62
2023-01-21T20:00:33.107Z,90.84
2023-01-21T20:05:34.801Z,91.02
2023-01-21T20:10:36.584Z,91.47
2023-01-21T20:15:38.191Z,91.51
2023-01-21T20:20:39.733Z,91.63
2023-01-21T20:25:43.616Z,91.86
2023-01-21T20:30:45.760Z,92.29
2023-01-21T20:35:49.300Z,92.45
2023-01-21T20:40:50.834Z,92.34
2023-01-21T20:45:53.410Z,92.61
2023-01-21T20:50:55.201Z,93.01
2023-01-21T20:56:00.379Z,93.39
2023-01-21T21:01:01.863Z,93.35
2023-01-21T21:06:10.868Z,94.00
2023-01-21T21:11:14.754Z,94.14
2023-01-21T21:16:26.247Z,94.37
2023-01-21T21:21:27.790Z,94.34
2023-01-21T21:26:29.554Z,94.68
2023-01-21T21:31:32.697Z,95.08
2023-01-21T21:36:34.260Z,95.11
2023-01-21T21:41:54.604Z,95.22
2023-01-21T21:47:14.656Z,95.45
2023-01-21T21:52:17.779Z,95.24
2023-01-21T21:57:19.240Z,94.93
2023-01-21T22:02:21.061Z,95.64
2023-01-21T22:07:22.636Z,95.61
2023-01-21T22:12:24.224Z,95.36
2023-01-21T22:17:25.866Z,95.95
2023-01-21T22:22:27.534Z,95.91
2023-01-21T22:27:29.839Z,96.32
2023-01-21T22:32:31.315Z,96.21
2023-01-21T22:37:32.824Z,96.42
2023-01-21T22:42:34.435Z,96.17
2023-01-21T22:47:35.959Z,96.24
2023-01-21T22:52:37.500Z,96.22
2023-01-21T22:57:38.928Z,96.25
2023-01-21T23:02:40.324Z,96.16
2023-01-21T23:07:41.889Z,96.18
2023-01-21T23:12:43.331Z,96.33
2023-01-21T23:17:44.844Z,96.11
2023-01-21T23:22:46.309Z,96.25
2023-01-21T23:27:47.783Z,97.12
2023-01-21T23:32:49.204Z,97.08
2023-01-21T23:37:50.681Z,97.22
2023-01-21T23:42:52.077Z,97.48
2023-01-21T23:47:54.859Z,97.07
2023-01-21T23:52:56.522Z,97.22
2023-01-21T23:57:57.963Z,96.64
